Torres Canon, Colorado
Current Conditions -  °F | °C
As of 10:53 AM on Monday 26 Jan 2015 (Local Time) from KRTN Reporting Station
Clear Clear  
Wind Chill: 51°   Ceiling: Unl
Heat Index: 51°   Visibility: 10mi
Dew Point: 27°   Wind: 5mph
Humidity: 39%   Direction: 70°ENE
Pressure: 30.37"   Gusts: NA
Location:  37.1566°N, 104.956°W
Report Text: KRTN 261753Z AUTO 07004KT 10SM CLR 11/M03 A3037 RMK AO2 SLP270 T01061028 10106 21044 52004
Loading
Personal Weather Stations






























Interactive Weather Map New forecast layout! Learn more

10-Day Weather Forecast

Advertisements
Track Severe Weather on mobile